Time;durP1;ratioP1;P1;durP2;ratioP2;P2;SDS_P1;SDS_P2;PMS_P1;PMS_P2;Temp;Humidity;BMP_temperature;BMP_pressure;BME280_temperature;BME280_humidity;BME280_pressure;Samples;Min_cycle;Max_cycle;Signal;HPM_P1;HPM_P2
2021/12/11 00:02:10;;;;;;;42.03;25.42;;;5.80;99.90;;;;;;6094979;23;20014;-73
2021/12/11 00:04:41;;;;;;;36.95;23.75;;;5.90;99.90;;;;;;6093713;23;20014;-69
2021/12/11 00:07:12;;;;;;;39.65;25.25;;;5.90;99.90;;;;;;6094763;23;20014;-74
2021/12/11 00:09:51;;;;;;;40.13;23.80;;;6.00;99.90;;;;;;6094588;23;20046;-72
2021/12/11 00:12:25;;;;;;;43.80;26.13;;;6.00;99.90;;;;;;6094723;23;20023;-71
2021/12/11 00:15:07;;;;;;;40.85;26.65;;;5.80;99.90;;;;;;6095206;23;20042;-76
2021/12/11 00:17:35;;;;;;;42.38;28.52;;;5.80;99.90;;;;;;6094092;23;20022;-67
2021/12/11 00:20:08;;;;;;;40.67;27.52;;;5.80;99.90;;;;;;6094381;23;20081;-71
2021/12/11 00:22:41;;;;;;;49.78;31.40;;;5.90;99.90;;;;;;6094641;23;20114;-68
2021/12/11 00:25:28;;;;;;;194.43;100.63;;;6.10;99.90;;;;;;6095461;23;20081;-71
2021/12/11 00:28:07;;;;;;;61.65;43.00;;;6.20;99.90;;;;;;6095032;23;20022;-68
2021/12/11 00:30:39;;;;;;;55.13;34.83;;;6.20;99.90;;;;;;6094695;23;20025;-73
2021/12/11 00:33:12;;;;;;;58.97;36.00;;;6.10;99.90;;;;;;6094855;23;20086;-70
2021/12/11 00:35:40;;;;;;;53.05;35.13;;;5.90;99.90;;;;;;6094951;23;20021;-67
2021/12/11 00:38:11;;;;;;;60.53;36.75;;;5.80;99.90;;;;;;6094648;23;20018;-67
2021/12/11 00:40:40;;;;;;;59.55;36.55;;;5.70;99.90;;;;;;6094649;23;20049;-70
2021/12/11 00:43:12;;;;;;;55.53;36.10;;;5.60;99.90;;;;;;6094632;23;20089;-68
2021/12/11 00:45:40;;;;;;;51.55;32.55;;;5.60;99.90;;;;;;6094984;23;20020;-68
2021/12/11 00:48:14;;;;;;;47.30;31.23;;;5.70;99.90;;;;;;6095001;23;20037;-69
2021/12/11 00:50:53;;;;;;;45.25;28.30;;;5.70;99.90;;;;;;6094644;23;20094;-68
2021/12/11 00:53:46;;;;;;;42.00;27.77;;;5.60;99.90;;;;;;6094895;23;20014;-69
2021/12/11 00:56:28;;;;;;;49.35;29.40;;;5.60;99.90;;;;;;6094375;23;20041;-67
2021/12/11 00:58:59;;;;;;;49.80;28.60;;;5.60;99.90;;;;;;6094934;23;20369;-66
2021/12/11 01:01:33;;;;;;;46.45;29.35;;;5.50;99.90;;;;;;6094674;23;20018;-71
2021/12/11 01:04:12;;;;;;;42.08;27.73;;;5.50;99.90;;;;;;6094952;23;20018;-69
2021/12/11 01:06:49;;;;;;;46.22;28.17;;;5.40;99.90;;;;;;6094629;23;20041;-66
2021/12/11 01:09:30;;;;;;;47.05;27.60;;;5.10;99.90;;;;;;6094608;23;20294;-69
2021/12/11 01:12:03;;;;;;;;;;;5.20;99.90;;;;;;6094963;23;20390;-67
2021/12/11 01:14:39;;;;;;;39.88;25.58;;;5.20;99.90;;;;;;6093663;23;19917;-68
2021/12/11 01:17:12;;;;;;;39.92;26.65;;;5.40;99.90;;;;;;6094438;23;20026;-72
2021/12/11 01:19:44;;;;;;;47.95;28.65;;;5.60;99.90;;;;;;6095000;23;20020;-70
2021/12/11 01:22:38;;;;;;;43.78;27.52;;;5.30;99.90;;;;;;6096532;23;20018;-68
2021/12/11 01:25:24;;;;;;;46.67;28.83;;;5.20;99.90;;;;;;6096900;23;20014;-66
2021/12/11 01:27:58;;;;;;;50.97;30.63;;;5.20;99.90;;;;;;6096730;23;20606;-70
2021/12/11 01:30:30;;;;;;;49.97;29.42;;;5.30;99.90;;;;;;6070969;23;20475;-67
2021/12/11 01:32:57;;;;;;;49.85;30.42;;;5.50;99.90;;;;;;6096286;23;20018;-68
2021/12/11 01:35:26;;;;;;;48.75;28.20;;;5.60;99.90;;;;;;6071127;23;20105;-69
2021/12/11 01:38:14;;;;;;;50.03;31.50;;;5.30;99.90;;;;;;6096250;23;20038;-68
2021/12/11 01:40:45;;;;;;;47.45;30.35;;;5.10;99.90;;;;;;6096347;23;20034;-67
2021/12/11 01:43:13;;;;;;;44.70;28.63;;;5.40;99.90;;;;;;6070789;23;20028;-68
2021/12/11 01:45:47;;;;;;;47.10;28.83;;;5.70;99.90;;;;;;6096151;23;20021;-68
2021/12/11 01:48:21;;;;;;;43.13;29.63;;;5.90;99.90;;;;;;6070968;23;20034;-73
2021/12/11 01:51:20;;;;;;;46.13;29.83;;;5.90;99.90;;;;;;6070473;23;20022;-72
2021/12/11 01:54:16;;;;;;;44.85;29.33;;;5.80;99.90;;;;;;6052506;23;20018;-65
2021/12/11 01:56:48;;;;;;;44.53;29.50;;;5.10;99.90;;;;;;6070562;23;20089;-70
2021/12/11 01:59:25;;;;;;;44.55;29.08;;;5.00;99.90;;;;;;6096187;23;20042;-71
2021/12/11 02:02:13;;;;;;;34.40;23.17;;;5.10;99.90;;;;;;6095987;23;20020;-68
2021/12/11 02:04:44;;;;;;;38.50;25.42;;;5.20;99.90;;;;;;6095979;23;20022;-67
2021/12/11 02:07:26;;;;;;;35.20;24.27;;;5.30;99.90;;;;;;6095745;23;20019;-69
2021/12/11 02:09:57;;;;;;;39.17;27.33;;;5.40;99.90;;;;;;6095902;23;20369;-68
2021/12/11 02:12:39;;;;;;;50.17;29.15;;;5.50;99.90;;;;;;6095881;23;20018;-71
2021/12/11 02:15:30;;;;;;;43.45;30.10;;;5.50;99.90;;;;;;6095851;23;20014;-69
2021/12/11 02:18:10;;;;;;;43.78;27.33;;;5.60;99.90;;;;;;6095662;23;20022;-66
2021/12/11 02:20:48;;;;;;;39.42;27.60;;;5.70;99.90;;;;;;6096132;23;20366;-68
2021/12/11 02:23:16;;;;;;;37.00;25.17;;;5.80;99.90;;;;;;6095434;23;20089;-69
2021/12/11 02:25:47;;;;;;;37.88;25.98;;;6.00;99.90;;;;;;6096437;23;20424;-73
2021/12/11 02:28:36;;;;;;;36.80;24.40;;;6.00;99.90;;;;;;6095797;23;20010;-67
2021/12/11 02:31:32;;;;;;;31.00;21.48;;;6.00;99.90;;;;;;6095831;23;20337;-68
2021/12/11 02:34:09;;;;;;;35.72;22.25;;;5.90;99.90;;;;;;6095966;23;20017;-68
2021/12/11 02:36:47;;;;;;;33.10;22.42;;;5.90;99.90;;;;;;6095648;23;20391;-68
2021/12/11 02:39:30;;;;;;;30.20;21.90;;;6.10;99.90;;;;;;6095925;23;20113;-67
2021/12/11 02:42:07;;;;;;;29.95;21.52;;;6.00;99.90;;;;;;6095301;23;20019;-69
2021/12/11 02:44:39;;;;;;;32.58;21.08;;;6.10;99.90;;;;;;6095898;23;20098;-68
2021/12/11 02:47:24;;;;;;;27.67;19.20;;;6.10;99.90;;;;;;6095852;23;20010;-75
2021/12/11 02:50:00;;;;;;;30.73;20.10;;;5.90;99.90;;;;;;6095830;23;20019;-71
2021/12/11 02:52:48;;;;;;;32.17;19.75;;;5.70;99.90;;;;;;6095513;23;20081;-71
2021/12/11 02:55:23;;;;;;;29.63;19.52;;;5.60;99.90;;;;;;6095330;23;20041;-65
2021/12/11 02:58:15;;;;;;;26.90;19.50;;;5.40;99.90;;;;;;6070517;23;20018;-69
2021/12/11 03:00:57;;;;;;;29.10;18.98;;;5.40;99.90;;;;;;6070813;23;20560;-69
2021/12/11 03:03:31;;;;;;;27.10;19.00;;;5.30;99.90;;;;;;6095438;23;20069;-74
2021/12/11 03:06:06;;;;;;;30.75;18.35;;;5.10;99.90;;;;;;6095432;23;20021;-76
2021/12/11 03:08:35;;;;;;;28.15;18.05;;;5.10;99.90;;;;;;6095536;23;20339;-73
2021/12/11 03:11:11;;;;;;;27.17;17.95;;;5.30;99.90;;;;;;6095546;23;20020;-68
2021/12/11 03:13:39;;;;;;;27.08;18.17;;;5.30;99.90;;;;;;6070454;23;20332;-75
2021/12/11 03:16:09;;;;;;;24.35;17.90;;;5.60;99.90;;;;;;6095397;23;20015;-70
2021/12/11 03:18:36;;;;;;;27.20;18.20;;;5.40;99.90;;;;;;6095022;23;20018;-68
2021/12/11 03:21:05;;;;;;;27.40;17.65;;;5.70;99.90;;;;;;6095510;23;20066;-65
2021/12/11 03:23:32;;;;;;;24.67;17.08;;;5.80;99.90;;;;;;6095107;23;20018;-66
2021/12/11 03:26:00;;;;;;;24.23;17.10;;;5.80;99.90;;;;;;6095048;23;20019;-67
2021/12/11 03:28:27;;;;;;;24.35;16.95;;;5.80;99.90;;;;;;6095297;23;20049;-65
2021/12/11 03:30:59;;;;;;;21.67;16.48;;;5.90;99.90;;;;;;6095393;23;20370;-66
2021/12/11 03:33:33;;;;;;;22.70;16.23;;;5.90;99.90;;;;;;6095017;23;20018;-72
2021/12/11 03:36:03;;;;;;;21.38;14.27;;;5.80;99.90;;;;;;6045877;23;20093;-67
2021/12/11 03:38:34;;;;;;;20.45;15.10;;;6.00;99.90;;;;;;6095034;23;20377;-68
2021/12/11 03:41:02;;;;;;;22.27;16.33;;;6.00;99.90;;;;;;6095107;23;20014;-65
2021/12/11 03:43:30;;;;;;;19.33;15.07;;;6.00;99.90;;;;;;6094688;23;20019;-66
2021/12/11 03:46:01;;;;;;;20.75;14.35;;;6.10;99.90;;;;;;6046192;23;20029;-71
2021/12/11 03:48:52;;;;;;;21.05;15.05;;;6.00;99.90;;;;;;6095184;23;20018;-72
2021/12/11 03:51:24;;;;;;;19.98;15.15;;;6.10;99.90;;;;;;6095350;23;20021;-76
2021/12/11 03:53:52;;;;;;;23.05;14.75;;;6.10;99.90;;;;;;6094707;23;20029;-66
2021/12/11 03:56:20;;;;;;;19.90;14.30;;;6.10;99.90;;;;;;6095257;23;20061;-71
2021/12/11 03:58:50;;;;;;;19.40;14.27;;;6.10;99.90;;;;;;6095478;23;20017;-73
2021/12/11 04:01:26;;;;;;;20.75;14.73;;;6.10;99.90;;;;;;6095083;23;20022;-77
2021/12/11 04:04:04;;;;;;;19.95;14.10;;;6.10;99.90;;;;;;6095023;23;20042;-78
2021/12/11 04:06:32;;;;;;;22.23;15.02;;;6.10;99.90;;;;;;6095070;23;20018;-76
2021/12/11 04:09:06;;;;;;;18.85;14.05;;;6.00;99.90;;;;;;6095406;23;20081;-73
2021/12/11 04:11:35;;;;;;;19.42;13.57;;;6.10;99.90;;;;;;6094925;23;20022;-77
2021/12/11 04:14:06;;;;;;;24.48;14.13;;;6.00;99.90;;;;;;6095200;23;20305;-72
2021/12/11 04:16:35;;;;;;;17.95;12.85;;;5.90;99.90;;;;;;6095236;23;20033;-66
2021/12/11 04:19:04;;;;;;;20.88;14.05;;;5.90;99.90;;;;;;6069033;23;20027;-66
2021/12/11 04:21:32;;;;;;;22.13;14.38;;;5.60;99.90;;;;;;6095027;23;20101;-70
2021/12/11 04:24:03;;;;;;;19.45;13.68;;;5.40;99.90;;;;;;6095046;23;20014;-69
2021/12/11 04:26:30;;;;;;;24.58;15.05;;;5.10;99.90;;;;;;6094719;23;20010;-69
2021/12/11 04:28:58;;;;;;;18.02;13.63;;;5.50;99.90;;;;;;6094868;23;20045;-73
2021/12/11 04:31:28;;;;;;;17.48;13.00;;;5.70;99.90;;;;;;6095062;23;20464;-70
2021/12/11 04:33:58;;;;;;;;;;;5.90;99.90;;;;;;6095327;23;20373;-69
2021/12/11 04:36:29;;;;;;;17.38;11.27;;;6.00;99.90;;;;;;6095013;23;19925;-64
2021/12/11 04:38:58;;;;;;;18.08;11.88;;;6.10;99.90;;;;;;6094752;23;20085;-68
2021/12/11 04:41:36;;;;;;;19.50;12.63;;;6.10;99.90;;;;;;6094805;23;20085;-71
2021/12/11 04:44:09;;;;;;;16.20;12.02;;;6.20;99.90;;;;;;6095127;23;20038;-70
2021/12/11 04:46:37;;;;;;;14.15;10.65;;;6.10;99.90;;;;;;6094607;23;20034;-65
2021/12/11 04:49:19;;;;;;;18.73;10.98;;;5.90;99.90;;;;;;6094951;23;20014;-72
2021/12/11 04:52:01;;;;;;;15.77;11.23;;;5.40;99.90;;;;;;6094809;23;20018;-72
2021/12/11 04:57:51;;;;;;;13.82;10.45;;;5.30;99.90;;;;;;6096619;23;20089;-73
2021/12/11 05:00:31;;;;;;;15.40;9.82;;;5.40;99.90;;;;;;6096846;23;20040;-67
2021/12/11 05:08:49;;;;;;;8.98;7.38;;;5.60;99.90;;;;;;6096312;23;20382;-71
2021/12/11 05:11:09;;;;;;;8.40;6.18;;;5.60;99.90;;;;;;6096881;23;20093;-68
2021/12/11 05:13:37;;;;;;;6.10;5.50;;;5.50;99.90;;;;;;6071654;23;20018;-77
2021/12/11 05:16:08;;;;;;;5.68;5.05;;;5.40;99.90;;;;;;6096808;23;20062;-71
2021/12/11 05:18:39;;;;;;;6.07;4.85;;;5.00;99.90;;;;;;6096207;23;20105;-72
2021/12/11 05:21:13;;;;;;;6.80;5.20;;;4.60;99.90;;;;;;6096882;23;20017;-68
2021/12/11 05:23:42;;;;;;;6.38;5.20;;;4.50;99.90;;;;;;6096639;23;20324;-76
2021/12/11 05:26:10;;;;;;;6.85;5.30;;;4.60;99.90;;;;;;6096592;23;20037;-72
2021/12/11 05:28:37;;;;;;;5.63;4.75;;;4.50;99.90;;;;;;6096492;23;20089;-73
2021/12/11 05:31:09;;;;;;;6.80;5.00;;;4.50;99.90;;;;;;6096542;23;20453;-69
2021/12/11 05:33:37;;;;;;;6.22;5.03;;;4.20;99.90;;;;;;6096603;23;20361;-71
2021/12/11 05:36:09;;;;;;;7.10;5.40;;;4.10;99.90;;;;;;6096389;23;20021;-67
2021/12/11 05:38:39;;;;;;;8.18;5.55;;;4.00;99.90;;;;;;6096322;23;20122;-77
2021/12/11 05:41:12;;;;;;;6.20;5.15;;;4.20;99.90;;;;;;6096527;23;20018;-73
2021/12/11 05:43:41;;;;;;;5.65;4.80;;;4.30;99.90;;;;;;6096324;23;20093;-68
2021/12/11 05:46:10;;;;;;;6.28;5.53;;;4.10;99.90;;;;;;6096210;23;20101;-68
2021/12/11 05:48:39;;;;;;;6.40;5.03;;;4.40;99.90;;;;;;6096333;23;20378;-65
2021/12/11 05:51:09;;;;;;;6.40;5.05;;;4.50;99.90;;;;;;6096568;23;20034;-69
2021/12/11 05:53:37;;;;;;;6.67;5.27;;;4.40;99.90;;;;;;6096273;23;20014;-70
2021/12/11 05:56:11;;;;;;;5.90;5.05;;;4.10;99.90;;;;;;6096002;23;20082;-77
2021/12/11 05:58:56;;;;;;;5.28;4.78;;;4.00;99.90;;;;;;6096134;23;20077;-69
2021/12/11 06:01:33;;;;;;;5.68;5.07;;;3.80;99.90;;;;;;6096086;23;20082;-73
2021/12/11 06:04:08;;;;;;;7.85;4.93;;;3.80;99.90;;;;;;6096373;23;20018;-72
2021/12/11 06:06:37;;;;;;;5.53;4.60;;;4.10;99.90;;;;;;6095343;23;20010;-74
2021/12/11 06:09:07;;;;;;;5.50;4.93;;;4.20;99.90;;;;;;6070963;23;20085;-68
2021/12/11 06:11:35;;;;;;;6.25;5.07;;;4.40;99.90;;;;;;6096266;23;20022;-74
2021/12/11 06:14:04;;;;;;;7.18;5.03;;;4.30;99.90;;;;;;6096008;23;20368;-71
2021/12/11 06:16:32;;;;;;;5.35;4.30;;;4.30;99.90;;;;;;6096025;23;20066;-77
2021/12/11 06:19:04;;;;;;;5.30;4.68;;;4.00;99.90;;;;;;6096341;23;20018;-71
2021/12/11 06:21:34;;;;;;;5.50;4.88;;;4.10;99.90;;;;;;6096233;23;20396;-74
2021/12/11 06:24:03;;;;;;;5.20;4.70;;;4.10;99.90;;;;;;6096524;23;20018;-75
2021/12/11 06:26:31;;;;;;;5.75;4.95;;;4.20;99.90;;;;;;6096212;23;20081;-78
2021/12/11 06:28:59;;;;;;;5.68;4.43;;;4.30;99.90;;;;;;6096235;23;20136;-77
2021/12/11 06:31:26;;;;;;;5.30;4.57;;;4.00;99.90;;;;;;6096626;23;20081;-73
2021/12/11 06:33:55;;;;;;;4.95;4.40;;;4.00;99.90;;;;;;6096127;23;20033;-77
2021/12/11 06:36:27;;;;;;;7.60;4.80;;;4.00;99.90;;;;;;6095792;23;20010;-68
2021/12/11 06:39:05;;;;;;;5.88;4.93;;;3.80;99.90;;;;;;6095877;23;20097;-76
2021/12/11 06:41:36;;;;;;;5.20;4.70;;;3.80;99.90;;;;;;6095692;23;20045;-75
2021/12/11 06:44:04;;;;;;;6.60;5.30;;;3.70;99.90;;;;;;6095631;23;20066;-73
2021/12/11 06:46:33;;;;;;;5.60;5.00;;;3.80;99.90;;;;;;6094966;23;20093;-69
2021/12/11 06:49:02;;;;;;;5.68;5.10;;;3.90;99.90;;;;;;6096081;23;20019;-79
2021/12/11 06:51:30;;;;;;;5.68;4.78;;;4.00;99.90;;;;;;6070210;23;20041;-74
2021/12/11 06:54:02;;;;;;;5.70;5.05;;;4.00;99.90;;;;;;6094479;23;20034;-79
2021/12/11 06:56:30;;;;;;;5.13;4.63;;;4.10;99.90;;;;;;6095571;23;20015;-72
2021/12/11 06:58:59;;;;;;;6.50;4.70;;;4.40;99.90;;;;;;6095904;23;20026;-72
2021/12/11 07:01:28;;;;;;;6.13;5.07;;;4.20;99.90;;;;;;6095634;23;20332;-77
2021/12/11 07:03:58;;;;;;;5.35;4.80;;;4.00;99.90;;;;;;6095850;23;20325;-78
2021/12/11 07:06:27;;;;;;;5.90;4.93;;;4.00;99.90;;;;;;6069926;23;20383;-68
2021/12/11 07:08:54;;;;;;;5.50;4.70;;;3.80;99.90;;;;;;6095916;23;20034;-74
2021/12/11 07:11:22;;;;;;;5.90;5.25;;;3.70;99.90;;;;;;6095317;23;20184;-67
2021/12/11 07:13:51;;;;;;;5.82;4.95;;;3.90;99.90;;;;;;6095665;23;20037;-66
2021/12/11 07:16:19;;;;;;;5.55;4.78;;;4.00;99.90;;;;;;6095590;23;20382;-70
2021/12/11 07:18:47;;;;;;;5.50;4.78;;;3.80;99.90;;;;;;6095349;23;20333;-69
2021/12/11 07:21:14;;;;;;;5.32;4.72;;;3.90;99.90;;;;;;6095180;23;20011;-72
2021/12/11 07:23:47;;;;;;;5.32;4.82;;;4.00;99.90;;;;;;6070624;23;20113;-66
2021/12/11 07:26:28;;;;;;;5.30;4.80;;;3.80;99.90;;;;;;6094948;23;20329;-69
2021/12/11 07:28:58;;;;;;;6.20;4.93;;;3.90;99.90;;;;;;6095846;23;20089;-75
2021/12/11 07:31:27;;;;;;;;;;;3.80;99.90;;;;;;6095842;23;20081;-69
2021/12/11 07:33:55;;;;;;;4.88;4.35;;;3.90;99.90;;;;;;6095526;23;19920;-69
2021/12/11 07:36:25;;;;;;;5.00;4.40;;;3.80;99.90;;;;;;6069348;23;20125;-67
2021/12/11 07:38:53;;;;;;;5.27;4.77;;;3.80;99.90;;;;;;6095499;23;20130;-68
2021/12/11 07:41:21;;;;;;;5.45;4.50;;;3.80;99.90;;;;;;6094921;23;20090;-66
2021/12/11 07:43:50;;;;;;;5.28;4.78;;;3.90;99.90;;;;;;6095560;23;20077;-72
2021/12/11 07:46:24;;;;;;;5.55;4.95;;;3.90;99.90;;;;;;6095223;23;20094;-67
2021/12/11 07:48:52;;;;;;;5.82;4.53;;;4.00;99.90;;;;;;6095250;23;20436;-68
2021/12/11 07:51:21;;;;;;;4.75;4.20;;;3.90;99.90;;;;;;6094901;23;20022;-69
2021/12/11 07:53:50;;;;;;;5.75;4.40;;;3.90;99.90;;;;;;6095178;23;20520;-68
2021/12/11 07:56:18;;;;;;;5.22;4.72;;;3.90;99.90;;;;;;6094979;23;20060;-66
2021/12/11 07:58:47;;;;;;;5.28;4.53;;;3.80;99.90;;;;;;6095227;23;20029;-72
2021/12/11 08:01:15;;;;;;;5.10;4.57;;;3.70;99.90;;;;;;6094673;23;20010;-67
2021/12/11 08:03:43;;;;;;;5.18;4.68;;;3.70;99.90;;;;;;6070199;23;20060;-68
2021/12/11 08:06:12;;;;;;;6.07;5.20;;;3.80;99.90;;;;;;6094987;23;20392;-69
2021/12/11 08:08:42;;;;;;;5.88;4.95;;;3.80;99.90;;;;;;6095144;23;20011;-68
2021/12/11 08:11:13;;;;;;;5.25;4.75;;;4.00;99.90;;;;;;6094592;23;20014;-67
2021/12/11 08:13:41;;;;;;;;;;;4.00;99.90;;;;;;6095839;23;20011;-69
2021/12/11 08:16:10;;;;;;;6.00;4.20;;;4.10;99.90;;;;;;6069353;23;19948;-71
2021/12/11 08:18:38;;;;;;;6.53;5.18;;;4.00;99.90;;;;;;6095182;23;20085;-70
2021/12/11 08:21:07;;;;;;;5.93;5.22;;;4.30;99.90;;;;;;6095145;23;20014;-72
2021/12/11 08:23:42;;;;;;;8.32;6.35;;;4.20;99.90;;;;;;6095289;23;20045;-69
2021/12/11 08:26:15;;;;;;;31.05;16.98;;;4.20;99.90;;;;;;6094645;23;20025;-73
2021/12/11 08:28:43;;;;;;;10.13;8.18;;;4.80;99.90;;;;;;6095089;23;20381;-76
2021/12/11 08:31:14;;;;;;;14.70;10.25;;;5.00;99.90;;;;;;6096545;23;20078;-70
2021/12/11 08:33:42;;;;;;;12.45;8.38;;;5.00;99.90;;;;;;6097484;23;20022;-67
2021/12/11 08:36:10;;;;;;;7.95;6.57;;;5.10;99.90;;;;;;6095038;23;20519;-66
2021/12/11 08:38:38;;;;;;;5.40;4.40;;;4.80;99.90;;;;;;6096676;23;20041;-66
2021/12/11 08:41:08;;;;;;;4.72;4.32;;;4.40;99.90;;;;;;6096693;23;20018;-65
2021/12/11 08:43:37;;;;;;;5.13;4.60;;;4.40;99.90;;;;;;6097257;23;20025;-65
2021/12/11 08:46:10;;;;;;;5.35;4.45;;;4.40;99.90;;;;;;6096707;23;20014;-68
2021/12/11 08:48:46;;;;;;;5.97;4.85;;;4.70;99.90;;;;;;6096872;23;20038;-67
2021/12/11 08:51:26;;;;;;;4.72;4.28;;;4.60;99.90;;;;;;6071025;23;20049;-73
2021/12/11 08:53:54;;;;;;;;;;;4.50;99.90;;;;;;6097358;23;20045;-75
2021/12/11 08:56:24;;;;;;;5.05;4.53;;;4.50;99.90;;;;;;6096458;23;19913;-68
2021/12/11 08:58:52;;;;;;;5.60;5.00;;;4.30;99.90;;;;;;6097151;23;20388;-67
2021/12/11 09:01:34;;;;;;;5.30;4.80;;;4.30;99.90;;;;;;6096536;23;20073;-65
2021/12/11 09:04:17;;;;;;;5.20;4.50;;;4.60;99.90;;;;;;6097187;23;20368;-69
2021/12/11 09:06:52;;;;;;;5.28;4.78;;;4.40;99.90;;;;;;6096576;23;20662;-67
2021/12/11 09:09:36;;;;;;;9.75;7.50;;;4.50;99.90;;;;;;6096738;23;20177;-69
2021/12/11 09:12:07;;;;;;;34.53;18.95;;;4.50;99.90;;;;;;6096702;23;20025;-69
2021/12/11 09:14:39;;;;;;;75.53;39.08;;;4.90;99.90;;;;;;6097123;23;20011;-71
2021/12/11 09:17:20;;;;;;;9.75;7.22;;;5.50;99.90;;;;;;6096069;23;20025;-66
2021/12/11 09:19:55;;;;;;;5.93;5.32;;;5.20;99.90;;;;;;6096705;23;20014;-69
2021/12/11 09:22:38;;;;;;;5.50;4.88;;;5.00;99.90;;;;;;6096221;23;20329;-76
2021/12/11 09:25:20;;;;;;;6.32;4.82;;;4.50;99.90;;;;;;6071496;23;20049;-68
2021/12/11 09:27:57;;;;;;;6.65;4.80;;;4.30;99.90;;;;;;6096172;23;20025;-67
2021/12/11 09:30:38;;;;;;;7.28;5.10;;;4.30;99.90;;;;;;6096172;23;20089;-70
2021/12/11 09:33:20;;;;;;;6.28;5.07;;;4.40;99.90;;;;;;6095743;23;20034;-66
2021/12/11 09:35:56;;;;;;;6.35;5.00;;;4.50;99.90;;;;;;6096615;23;20321;-67
2021/12/11 09:38:31;;;;;;;8.40;6.93;;;4.40;99.90;;;;;;6095823;23;20014;-66
2021/12/11 09:40:59;;;;;;;49.20;25.80;;;4.60;99.90;;;;;;6096722;23;20019;-67
2021/12/11 09:43:47;;;;;;;7.60;6.25;;;5.10;99.90;;;;;;6096162;23;20044;-65
2021/12/11 09:46:21;;;;;;;6.57;5.28;;;5.00;99.90;;;;;;6096204;23;20038;-68
2021/12/11 09:48:51;;;;;;;7.35;5.38;;;4.80;99.90;;;;;;6096299;23;20049;-66
2021/12/11 09:51:25;;;;;;;5.97;5.10;;;4.80;99.90;;;;;;6095919;23;20025;-74
2021/12/11 09:53:56;;;;;;;5.25;4.75;;;4.80;99.90;;;;;;6096148;23;20018;-74
2021/12/11 09:56:35;;;;;;;6.18;5.22;;;4.90;99.90;;;;;;6071086;23;20018;-69
2021/12/11 09:59:06;;;;;;;5.82;4.78;;;4.70;99.90;;;;;;6096088;23;20085;-68
2021/12/11 10:01:38;;;;;;;6.30;5.30;;;4.90;99.90;;;;;;6096089;23;20105;-73
2021/12/11 10:04:16;;;;;;;6.38;5.47;;;4.90;99.90;;;;;;6096581;23;20014;-74
2021/12/11 10:07:26;;;;;;;7.70;5.22;;;5.10;99.90;;;;;;6095617;23;20586;-67
2021/12/11 10:09:47;;;;;;;7.63;6.00;;;5.30;99.90;;;;;;6095973;23;20085;-68
2021/12/11 10:12:18;;;;;;;8.20;5.70;;;5.40;99.90;;;;;;6095784;23;20244;-67
2021/12/11 10:14:52;;;;;;;5.80;5.20;;;5.20;99.90;;;;;;6070962;23;20014;-67
2021/12/11 10:17:25;;;;;;;6.95;5.65;;;4.90;99.90;;;;;;6095991;23;20093;-67
2021/12/11 10:19:57;;;;;;;12.18;8.75;;;5.00;99.90;;;;;;6096052;23;20024;-67
2021/12/11 10:22:31;;;;;;;47.03;27.52;;;5.00;99.90;;;;;;6095683;23;20021;-69
2021/12/11 10:24:59;;;;;;;10.05;7.68;;;5.50;99.90;;;;;;6094830;23;20018;-66
2021/12/11 10:27:31;;;;;;;7.78;5.82;;;5.40;99.90;;;;;;6094742;23;20052;-66
2021/12/11 10:30:01;;;;;;;6.00;5.35;;;5.30;99.90;;;;;;6095866;23;20038;-66
2021/12/11 10:32:31;;;;;;;6.82;5.15;;;5.00;99.90;;;;;;6069771;23;20042;-67
2021/12/11 10:35:08;;;;;;;5.93;5.32;;;5.10;99.90;;;;;;6095538;23;20336;-68
2021/12/11 10:37:37;;;;;;;8.32;5.15;;;5.30;99.90;;;;;;6094710;23;20021;-67
2021/12/11 10:40:22;;;;;;;6.30;5.50;;;5.50;99.90;;;;;;6096226;23;20101;-69
2021/12/11 10:43:02;;;;;;;6.53;5.80;;;5.40;99.90;;;;;;6095546;23;20098;-67
2021/12/11 10:45:30;;;;;;;;;;;5.60;99.90;;;;;;6096035;23;20046;-72
2021/12/11 10:48:02;;;;;;;6.95;6.10;;;5.70;99.90;;;;;;6095680;23;19913;-69
2021/12/11 10:50:45;;;;;;;7.68;6.00;;;5.70;99.90;;;;;;6095907;23;20089;-66
2021/12/11 10:53:19;;;;;;;7.30;5.47;;;5.80;99.90;;;;;;6093948;23;20021;-67
2021/12/11 10:55:48;;;;;;;6.22;5.00;;;5.60;99.90;;;;;;6093875;23;20085;-67
2021/12/11 10:58:21;;;;;;;8.88;6.15;;;5.20;99.90;;;;;;6093111;23;20466;-68
2021/12/11 11:00:55;;;;;;;6.05;5.43;;;4.90;99.90;;;;;;6094055;23;20024;-65
2021/12/11 11:03:28;;;;;;;10.45;7.50;;;4.90;99.90;;;;;;6093740;23;20015;-67
2021/12/11 11:05:56;;;;;;;8.00;6.15;;;5.10;99.90;;;;;;6094719;23;20018;-71
2021/12/11 11:08:24;;;;;;;7.82;6.20;;;5.10;99.90;;;;;;6095183;23;20081;-66
2021/12/11 11:10:58;;;;;;;7.43;5.97;;;5.10;99.90;;;;;;6094983;23;20032;-67
2021/12/11 11:13:25;;;;;;;8.13;6.20;;;4.80;99.90;;;;;;6095196;23;20018;-63
2021/12/11 11:15:54;;;;;;;7.82;5.68;;;4.80;99.90;;;;;;6094336;23;20014;-68
2021/12/11 11:18:26;;;;;;;6.22;5.53;;;4.80;99.90;;;;;;6093609;23;20447;-69
2021/12/11 11:21:03;;;;;;;6.38;4.80;;;4.80;99.90;;;;;;6094539;23;20022;-65
2021/12/11 11:23:31;;;;;;;5.53;4.82;;;4.70;99.90;;;;;;6069618;23;20074;-67
2021/12/11 11:26:03;;;;;;;6.18;4.88;;;4.50;99.90;;;;;;6094676;23;20018;-69
2021/12/11 11:28:33;;;;;;;5.32;4.70;;;4.60;99.90;;;;;;6095154;23;20024;-70
2021/12/11 11:31:11;;;;;;;7.63;5.50;;;4.60;99.90;;;;;;6095321;23;20022;-69
2021/12/11 11:33:39;;;;;;;9.15;6.07;;;4.80;99.90;;;;;;6095110;23;20010;-69
2021/12/11 11:36:12;;;;;;;7.70;4.65;;;5.10;99.90;;;;;;6095345;23;20025;-66
2021/12/11 11:38:43;;;;;;;6.70;4.63;;;4.90;99.90;;;;;;6069575;23;20097;-67
2021/12/11 11:41:17;;;;;;;4.90;4.32;;;4.80;99.90;;;;;;6095163;23;20462;-67
2021/12/11 11:43:45;;;;;;;5.00;4.50;;;4.60;99.90;;;;;;6095195;23;20040;-68
2021/12/11 11:46:14;;;;;;;4.93;4.43;;;4.80;99.90;;;;;;6094385;23;20065;-68
2021/12/11 11:48:46;;;;;;;6.03;4.60;;;4.90;99.90;;;;;;6093761;23;20018;-67
2021/12/11 11:51:20;;;;;;;6.55;4.70;;;4.90;99.90;;;;;;6093632;23;20014;-66
2021/12/11 11:53:48;;;;;;;5.70;4.80;;;5.00;99.90;;;;;;6093904;23;20045;-65
2021/12/11 11:56:20;;;;;;;6.10;4.55;;;5.00;99.90;;;;;;6094030;23;20014;-66
2021/12/11 11:58:49;;;;;;;5.18;4.68;;;5.00;99.90;;;;;;6093968;23;20046;-65
2021/12/11 12:01:25;;;;;;;4.88;4.38;;;5.10;99.90;;;;;;6068483;23;20070;-66
2021/12/11 12:03:53;;;;;;;5.05;4.55;;;5.10;99.90;;;;;;6093692;23;20010;-67
2021/12/11 12:06:25;;;;;;;4.85;4.35;;;5.10;99.90;;;;;;6093942;23;20352;-72
2021/12/11 12:08:55;;;;;;;6.70;4.55;;;5.20;99.90;;;;;;6093958;23;20025;-66
2021/12/11 12:11:25;;;;;;;5.45;4.68;;;5.10;99.90;;;;;;6093536;23;20078;-66
2021/12/11 12:13:52;;;;;;;5.95;4.82;;;5.20;99.90;;;;;;6068352;23;20515;-67
2021/12/11 12:16:32;;;;;;;5.45;4.60;;;5.10;99.90;;;;;;6093919;23;20021;-68
2021/12/11 12:19:00;;;;;;;5.50;4.60;;;5.10;99.90;;;;;;6093821;23;20025;-69
2021/12/11 12:21:31;;;;;;;5.88;4.60;;;5.10;99.90;;;;;;6093833;23;20093;-70
2021/12/11 12:23:59;;;;;;;5.10;4.47;;;5.10;99.90;;;;;;6093744;23;20325;-77
2021/12/11 12:26:29;;;;;;;7.10;5.28;;;5.10;99.90;;;;;;6088270;23;20500;-70
2021/12/11 12:28:57;;;;;;;5.47;4.65;;;5.50;99.90;;;;;;6092485;23;20019;-64
2021/12/11 12:31:32;;;;;;;6.35;4.68;;;5.40;99.90;;;;;;6091698;23;20081;-70
2021/12/11 12:34:01;;;;;;;5.55;4.65;;;5.20;99.90;;;;;;6068629;23;20089;-75
2021/12/11 12:36:29;;;;;;;6.10;4.45;;;5.30;99.90;;;;;;6068927;23;20041;-69
2021/12/11 12:38:58;;;;;;;5.15;4.60;;;5.30;99.90;;;;;;6094259;23;20011;-68
2021/12/11 12:41:34;;;;;;;6.85;4.88;;;5.30;99.90;;;;;;6068265;23;20046;-70
2021/12/11 12:44:18;;;;;;;5.20;4.70;;;5.50;99.90;;;;;;6093808;23;20018;-72
2021/12/11 12:47:05;;;;;;;10.37;5.63;;;5.60;99.90;;;;;;6093986;23;20105;-71
2021/12/11 12:49:36;;;;;;;6.47;4.90;;;5.50;99.90;;;;;;6068472;23;20774;-74
2021/12/11 12:52:14;;;;;;;6.38;5.38;;;5.30;99.90;;;;;;6094249;23;20081;-75
2021/12/11 12:54:42;;;;;;;6.20;5.05;;;5.10;99.90;;;;;;6094433;23;20019;-75
2021/12/11 12:57:16;;;;;;;7.88;5.05;;;5.10;99.90;;;;;;6093971;23;20014;-71
2021/12/11 13:00:05;;;;;;;6.38;4.60;;;5.00;99.90;;;;;;6068615;23;20508;-71
2021/12/11 13:02:36;;;;;;;5.93;5.32;;;4.90;99.90;;;;;;6093636;23;20022;-70
2021/12/11 13:05:16;;;;;;;5.78;5.13;;;4.90;99.90;;;;;;6069452;23;20368;-71
2021/12/11 13:07:55;;;;;;;6.90;5.38;;;5.00;99.90;;;;;;6094355;23;20033;-75
2021/12/11 13:10:31;;;;;;;6.20;5.38;;;4.90;99.90;;;;;;6068024;23;20034;-79
2021/12/11 13:13:00;;;;;;;6.70;5.57;;;4.90;99.90;;;;;;6094266;23;20325;-67
2021/12/11 13:15:39;;;;;;;6.22;5.32;;;4.90;99.90;;;;;;6093842;23;20089;-72
2021/12/11 13:18:10;;;;;;;7.13;4.93;;;5.00;99.90;;;;;;6096019;23;20010;-64
2021/12/11 13:20:54;;;;;;;6.90;5.90;;;5.00;99.90;;;;;;6095342;23;20051;-66
2021/12/11 13:23:22;;;;;;;5.75;5.15;;;5.00;99.90;;;;;;6096062;23;20089;-66
2021/12/11 13:25:56;;;;;;;6.82;5.68;;;5.10;99.90;;;;;;6096173;23;20018;-67
2021/12/11 13:28:27;;;;;;;7.97;5.40;;;5.20;99.90;;;;;;6095964;23;20011;-72
2021/12/11 13:31:05;;;;;;;6.78;5.25;;;5.10;99.90;;;;;;6095845;23;20029;-68